createdAt,value
2022-09-03T00:00:11.691Z,21.85
2022-09-03T00:02:52.232Z,21.81
2022-09-03T00:05:29.665Z,21.77
2022-09-03T00:08:10.263Z,21.72
2022-09-03T00:10:46.640Z,21.70
2022-09-03T00:14:03.182Z,21.63
2022-09-03T00:16:41.328Z,21.62
2022-09-03T00:19:08.294Z,21.60
2022-09-03T00:21:44.584Z,21.57
2022-09-03T00:24:19.130Z,21.55
2022-09-03T00:26:54.551Z,21.52
2022-09-03T00:29:39.079Z,21.49
2022-09-03T00:32:14.710Z,21.47
2022-09-03T00:34:49.285Z,21.44
2022-09-03T00:37:16.575Z,21.43
2022-09-03T00:39:44.089Z,21.41
2022-09-03T00:42:24.951Z,21.39
2022-09-03T00:44:57.531Z,21.38
2022-09-03T00:48:06.418Z,21.34
2022-09-03T00:50:52.778Z,21.34
2022-09-03T00:53:47.870Z,21.31
2022-09-03T00:56:41.285Z,21.28
2022-09-03T00:59:21.933Z,21.27
2022-09-03T01:02:03.594Z,21.25
2022-09-03T01:05:18.658Z,21.23
2022-09-03T01:07:54.758Z,21.25
2022-09-03T01:10:27.326Z,21.23
2022-09-03T01:13:08.296Z,21.23
2022-09-03T01:15:59.570Z,21.23
2022-09-03T01:18:37.244Z,21.23
2022-09-03T01:21:36.684Z,21.19
2022-09-03T01:24:17.763Z,21.19
2022-09-03T01:26:57.665Z,21.18
2022-09-03T01:29:33.754Z,21.20
2022-09-03T01:32:00.854Z,21.17
2022-09-03T01:34:43.012Z,21.16
2022-09-03T01:37:20.438Z,21.14
2022-09-03T01:40:18.607Z,21.15
2022-09-03T01:42:54.378Z,21.13
2022-09-03T01:45:51.166Z,21.09
2022-09-03T01:48:27.254Z,21.09
2022-09-03T01:51:09.161Z,21.08
2022-09-03T01:54:10.976Z,21.06
2022-09-03T01:57:35.266Z,21.03
2022-09-03T02:00:16.683Z,20.98
2022-09-03T02:02:48.000Z,20.96
2022-09-03T02:05:19.520Z,20.93
2022-09-03T02:07:49.127Z,20.90
2022-09-03T02:10:19.045Z,20.87
2022-09-03T02:12:51.917Z,20.86
2022-09-03T02:15:22.699Z,20.84
2022-09-03T02:17:54.036Z,20.83
2022-09-03T02:20:23.201Z,20.81
2022-09-03T02:22:50.704Z,20.76
2022-09-03T02:25:23.411Z,20.73
2022-09-03T02:27:51.491Z,20.71
2022-09-03T02:30:18.667Z,20.68
2022-09-03T02:32:45.190Z,20.69
2022-09-03T02:35:12.884Z,20.67
2022-09-03T02:37:40.176Z,20.65
2022-09-03T02:40:10.182Z,20.66
2022-09-03T02:42:37.035Z,20.65
2022-09-03T02:45:09.589Z,20.61
2022-09-03T02:47:40.746Z,20.58
2022-09-03T02:50:07.593Z,20.55
2022-09-03T02:52:34.149Z,20.52
2022-09-03T02:55:00.661Z,20.52
2022-09-03T02:57:27.945Z,20.52
2022-09-03T02:59:54.643Z,20.49
2022-09-03T03:02:21.220Z,20.46
2022-09-03T03:04:51.676Z,20.45
2022-09-03T03:07:18.194Z,20.47
2022-09-03T03:09:44.936Z,20.45
2022-09-03T03:12:11.505Z,20.45
2022-09-03T03:14:37.999Z,20.44
2022-09-03T03:17:05.200Z,20.42
2022-09-03T03:19:31.878Z,20.39
2022-09-03T03:21:58.598Z,20.37
2022-09-03T03:24:26.180Z,20.36
2022-09-03T03:26:57.735Z,20.35
2022-09-03T03:29:25.153Z,20.33
2022-09-03T03:31:52.358Z,20.29
2022-09-03T03:34:23.026Z,20.26
2022-09-03T03:36:49.733Z,20.26
2022-09-03T03:39:16.238Z,20.26
2022-09-03T03:41:42.791Z,20.26
2022-09-03T03:44:11.150Z,20.23
2022-09-03T03:46:39.736Z,20.22
2022-09-03T03:49:07.655Z,20.19
2022-09-03T03:51:35.423Z,20.18
2022-09-03T03:54:05.421Z,20.15
2022-09-03T03:56:32.958Z,20.15
2022-09-03T03:58:59.832Z,20.12
2022-09-03T04:01:27.722Z,20.09
2022-09-03T04:04:00.240Z,20.05
2022-09-03T04:06:28.719Z,20.05
2022-09-03T04:08:55.306Z,20.05
2022-09-03T04:11:24.050Z,20.05
2022-09-03T04:13:53.906Z,20.02
2022-09-03T04:16:23.412Z,20.00
2022-09-03T04:18:51.162Z,19.98
2022-09-03T04:21:20.772Z,19.97
2022-09-03T04:23:50.982Z,19.95
2022-09-03T04:26:31.401Z,19.94
2022-09-03T04:29:01.167Z,19.95
2022-09-03T04:31:28.476Z,19.93
2022-09-03T04:33:58.337Z,19.92
2022-09-03T04:36:26.789Z,19.89
2022-09-03T04:38:54.588Z,19.87
2022-09-03T04:41:26.671Z,19.84
2022-09-03T04:43:57.724Z,19.83
2022-09-03T04:46:27.776Z,19.80
2022-09-03T04:48:55.422Z,19.76
2022-09-03T04:51:24.661Z,19.73
2022-09-03T04:53:57.337Z,19.69
2022-09-03T04:56:26.618Z,19.66
2022-09-03T04:58:58.538Z,19.66
2022-09-03T05:01:27.529Z,19.66
2022-09-03T05:03:59.742Z,19.65
2022-09-03T05:06:27.828Z,19.67
2022-09-03T05:08:55.957Z,19.65
2022-09-03T05:11:23.774Z,19.63
2022-09-03T05:13:57.917Z,19.60
2022-09-03T05:16:26.547Z,19.58
2022-09-03T05:18:54.881Z,19.57
2022-09-03T05:21:22.431Z,19.59
2022-09-03T05:23:50.958Z,19.59
2022-09-03T05:26:23.170Z,19.59
2022-09-03T05:28:55.060Z,19.57
2022-09-03T05:31:22.953Z,19.57
2022-09-03T05:33:52.824Z,19.58
2022-09-03T05:36:23.002Z,19.59
2022-09-03T05:38:50.563Z,19.60
2022-09-03T05:41:18.969Z,19.62
2022-09-03T05:43:51.902Z,19.61
2022-09-03T05:46:18.665Z,19.63
2022-09-03T05:48:45.590Z,19.64
2022-09-03T05:51:17.304Z,19.67
2022-09-03T05:53:46.277Z,19.72
2022-09-03T05:56:18.119Z,19.74
2022-09-03T05:58:48.322Z,19.76
2022-09-03T06:01:14.995Z,19.79
2022-09-03T06:03:43.715Z,19.82
2022-09-03T06:06:11.519Z,19.87
2022-09-03T06:08:41.462Z,19.93
2022-09-03T06:11:08.602Z,19.95
2022-09-03T06:13:37.235Z,19.98
2022-09-03T06:16:06.023Z,20.01
2022-09-03T06:18:32.589Z,20.03
2022-09-03T06:21:01.600Z,20.05
2022-09-03T06:23:30.342Z,20.08
2022-09-03T06:26:06.380Z,20.13
2022-09-03T06:28:34.826Z,20.19
2022-09-03T06:31:03.118Z,20.24
2022-09-03T06:33:36.558Z,20.31
2022-09-03T06:36:08.880Z,20.38
2022-09-03T06:38:37.229Z,20.46
2022-09-03T06:41:21.414Z,20.55
2022-09-03T06:44:04.464Z,20.66
2022-09-03T06:46:33.328Z,20.77
2022-09-03T06:49:00.354Z,20.91
2022-09-03T06:51:28.948Z,21.02
2022-09-03T06:54:07.312Z,21.18
2022-09-03T06:56:39.860Z,21.36
2022-09-03T06:59:14.802Z,21.53
2022-09-03T07:01:45.047Z,21.70
2022-09-03T07:04:19.117Z,21.87
2022-09-03T07:06:47.263Z,22.04
2022-09-03T07:09:15.426Z,22.22
2022-09-03T07:11:47.194Z,22.40
2022-09-03T07:14:20.274Z,22.65
2022-09-03T07:16:48.542Z,22.84
2022-09-03T07:19:15.541Z,23.00
2022-09-03T07:21:46.797Z,23.22
2022-09-03T07:24:22.046Z,23.42
2022-09-03T07:26:50.411Z,23.55
2022-09-03T07:29:20.335Z,23.69
2022-09-03T07:31:47.735Z,23.85
2022-09-03T07:34:16.459Z,24.01
2022-09-03T07:36:49.933Z,24.14
2022-09-03T07:39:18.274Z,24.25
2022-09-03T07:41:46.192Z,24.35
2022-09-03T07:44:19.670Z,24.45
2022-09-03T07:46:47.955Z,24.54
2022-09-03T07:49:15.062Z,24.63
2022-09-03T07:51:41.623Z,24.73
2022-09-03T07:54:11.684Z,24.82
2022-09-03T07:56:40.309Z,24.97
2022-09-03T07:59:07.416Z,25.14
2022-09-03T08:01:35.262Z,25.28
2022-09-03T08:04:06.658Z,25.34
2022-09-03T08:06:39.941Z,25.42
2022-09-03T08:09:11.293Z,25.56
2022-09-03T08:11:39.572Z,25.75
2022-09-03T08:14:12.294Z,25.90
2022-09-03T08:16:45.865Z,26.09
2022-09-03T08:19:13.214Z,26.24
2022-09-03T08:21:42.007Z,26.37
2022-09-03T08:24:09.462Z,26.46
2022-09-03T08:26:37.916Z,26.55
2022-09-03T08:29:05.700Z,26.67
2022-09-03T08:31:33.082Z,26.81
2022-09-03T08:34:06.659Z,26.96
2022-09-03T08:36:38.250Z,27.06
2022-09-03T08:39:10.615Z,27.15
2022-09-03T08:41:52.492Z,27.29
2022-09-03T08:44:49.315Z,27.43
2022-09-03T08:47:37.801Z,27.57
2022-09-03T08:50:13.444Z,27.69
2022-09-03T08:53:02.011Z,27.78
2022-09-03T08:55:42.695Z,27.91
2022-09-03T08:58:16.663Z,28.00
2022-09-03T09:00:49.037Z,28.08
2022-09-03T09:03:27.272Z,28.18
2022-09-03T09:06:39.891Z,28.26
2022-09-03T09:09:28.009Z,28.36
2022-09-03T09:12:01.909Z,28.47
2022-09-03T09:14:50.979Z,28.61
2022-09-03T09:17:39.138Z,28.75
2022-09-03T09:20:11.656Z,28.85
2022-09-03T09:22:41.570Z,28.88
2022-09-03T09:25:15.096Z,28.91
2022-09-03T09:27:51.623Z,28.97
2022-09-03T09:30:19.488Z,29.03
2022-09-03T09:32:47.277Z,29.08
2022-09-03T09:35:19.059Z,29.18
2022-09-03T09:37:53.679Z,29.24
2022-09-03T09:40:45.386Z,29.32
2022-09-03T09:43:22.003Z,29.39
2022-09-03T09:45:53.496Z,29.48
2022-09-03T09:48:37.554Z,29.62
2022-09-03T09:51:11.494Z,29.80
2022-09-03T09:53:41.449Z,29.98
2022-09-03T09:56:08.163Z,30.17
2022-09-03T09:58:35.846Z,30.30
2022-09-03T10:01:04.755Z,30.42
2022-09-03T10:03:37.342Z,30.46
2022-09-03T10:06:28.479Z,30.51
2022-09-03T10:09:13.020Z,30.54
2022-09-03T10:11:45.075Z,30.58
2022-09-03T10:14:27.986Z,30.60
2022-09-03T10:17:04.977Z,30.69
2022-09-03T10:20:19.171Z,30.79
2022-09-03T10:22:56.949Z,30.87
2022-09-03T10:25:58.030Z,30.97
2022-09-03T10:28:29.858Z,31.12
2022-09-03T10:31:23.066Z,31.17
2022-09-03T10:33:59.421Z,31.19
2022-09-03T10:36:46.093Z,31.16
2022-09-03T10:39:23.664Z,31.22
2022-09-03T10:42:11.079Z,31.33
2022-09-03T10:44:53.922Z,31.43
2022-09-03T10:47:51.450Z,31.49
2022-09-03T10:50:30.286Z,31.56
2022-09-03T10:52:56.728Z,31.63
2022-09-03T10:55:38.128Z,31.68
2022-09-03T10:58:48.767Z,31.74
2022-09-03T11:01:38.139Z,31.82
2022-09-03T11:04:32.089Z,31.85
2022-09-03T11:07:07.550Z,31.89
2022-09-03T11:09:41.834Z,31.96
2022-09-03T11:12:27.612Z,32.06
2022-09-03T11:15:10.317Z,32.08
2022-09-03T11:18:16.160Z,32.13
2022-09-03T11:20:44.112Z,32.28
2022-09-03T11:25:52.567Z,32.41
2022-09-03T11:28:45.236Z,32.48
2022-09-03T11:31:17.646Z,32.59
2022-09-03T11:33:56.925Z,32.61
2022-09-03T11:36:29.454Z,32.59
2022-09-03T11:38:56.637Z,32.56
2022-09-03T11:41:26.220Z,32.65
2022-09-03T11:44:01.194Z,32.75
2022-09-03T11:46:30.921Z,32.88
2022-09-03T11:49:27.390Z,32.98
2022-09-03T11:52:03.217Z,33.02
2022-09-03T11:54:33.530Z,33.01
2022-09-03T11:57:26.186Z,33.05
2022-09-03T11:59:53.258Z,33.04
2022-09-03T12:02:30.893Z,33.07
2022-09-03T12:05:22.686Z,33.13
2022-09-03T12:08:06.730Z,33.25
2022-09-03T12:11:09.581Z,33.29
2022-09-03T12:13:59.406Z,33.32
2022-09-03T12:16:51.847Z,33.32
2022-09-03T12:19:45.373Z,33.34
2022-09-03T12:22:16.570Z,33.36
2022-09-03T12:24:44.371Z,33.34
2022-09-03T12:27:18.213Z,33.32
2022-09-03T12:30:02.169Z,33.37
2022-09-03T12:32:32.410Z,33.50
2022-09-03T12:35:11.433Z,33.65
2022-09-03T12:40:30.927Z,33.99
2022-09-03T12:46:15.256Z,34.21
2022-09-03T12:51:52.557Z,34.46
2022-09-03T12:54:25.967Z,34.53
2022-09-03T12:56:58.525Z,34.52
2022-09-03T12:59:28.694Z,34.61
2022-09-03T13:02:00.321Z,34.63
2022-09-03T13:04:35.633Z,34.55
2022-09-03T13:07:08.541Z,34.52
2022-09-03T13:09:38.269Z,34.52
2022-09-03T13:12:05.890Z,34.54
2022-09-03T13:14:52.984Z,34.59
2022-09-03T13:17:38.383Z,34.66
2022-09-03T13:20:28.730Z,34.66
2022-09-03T13:23:32.948Z,34.65
2022-09-03T13:26:14.710Z,34.68
2022-09-03T13:28:57.656Z,34.67
2022-09-03T13:32:00.746Z,34.63
2022-09-03T13:34:40.466Z,34.64
2022-09-03T13:37:46.144Z,34.64
2022-09-03T13:40:19.590Z,34.66
2022-09-03T13:43:02.820Z,34.68
2022-09-03T13:45:37.357Z,34.69
2022-09-03T13:48:47.209Z,34.68
2022-09-03T13:51:18.013Z,34.67
2022-09-03T13:54:04.457Z,34.65
2022-09-03T13:56:58.245Z,34.67
2022-09-03T13:59:49.054Z,34.67
2022-09-03T14:02:38.388Z,34.62
2022-09-03T14:05:29.338Z,34.60
2022-09-03T14:08:09.311Z,34.67
2022-09-03T14:11:07.866Z,34.78
2022-09-03T14:14:09.381Z,34.81
2022-09-03T14:16:50.726Z,34.81
2022-09-03T14:19:45.405Z,34.78
2022-09-03T14:22:22.311Z,34.71
2022-09-03T14:25:01.278Z,34.70
2022-09-03T14:27:30.343Z,34.76
2022-09-03T14:30:07.180Z,34.76
2022-09-03T14:33:20.555Z,34.74
2022-09-03T14:36:10.840Z,34.74
2022-09-03T14:38:40.440Z,34.67
2022-09-03T14:41:22.207Z,34.58
2022-09-03T14:44:24.105Z,34.57
2022-09-03T14:47:05.684Z,34.63
2022-09-03T14:50:00.181Z,34.58
2022-09-03T14:53:00.401Z,34.50
2022-09-03T14:55:59.901Z,34.53
2022-09-03T14:58:38.232Z,34.60
2022-09-03T15:01:13.359Z,34.63
2022-09-03T15:04:00.151Z,34.65
2022-09-03T15:06:44.626Z,34.63
2022-09-03T15:09:38.891Z,34.57
2022-09-03T15:12:39.142Z,34.46
2022-09-03T15:15:13.632Z,34.36
2022-09-03T15:18:02.485Z,34.31
2022-09-03T15:20:50.905Z,34.30
2022-09-03T15:24:02.214Z,34.21
2022-09-03T15:26:54.118Z,34.08
2022-09-03T15:29:51.719Z,34.00
2022-09-03T15:32:48.802Z,33.89
2022-09-03T15:35:38.075Z,33.78
2022-09-03T15:38:10.923Z,33.71
2022-09-03T15:40:46.559Z,33.66
2022-09-03T15:43:25.196Z,33.58
2022-09-03T15:45:58.733Z,33.46
2022-09-03T15:48:31.246Z,33.32
2022-09-03T15:51:25.664Z,33.22
2022-09-03T15:54:43.039Z,33.13
2022-09-03T15:57:20.175Z,33.11
2022-09-03T16:00:07.329Z,33.03
2022-09-03T16:02:50.621Z,32.93
2022-09-03T16:05:29.035Z,32.89
2022-09-03T16:08:07.000Z,32.85
2022-09-03T16:10:46.346Z,32.80
2022-09-03T16:13:35.433Z,32.78
2022-09-03T16:16:30.991Z,32.76
2022-09-03T16:19:05.158Z,32.72
2022-09-03T16:21:56.208Z,32.65
2022-09-03T16:24:45.959Z,32.59
2022-09-03T16:27:33.581Z,32.48
2022-09-03T16:30:11.030Z,32.42
2022-09-03T16:32:54.695Z,32.37
2022-09-03T16:35:27.317Z,32.35
2022-09-03T16:38:27.087Z,32.31
2022-09-03T16:41:04.300Z,32.25
2022-09-03T16:44:04.143Z,32.14
2022-09-03T16:46:50.543Z,32.05
2022-09-03T16:49:19.027Z,31.92
2022-09-03T16:52:09.577Z,31.78
2022-09-03T16:54:55.839Z,31.67
2022-09-03T16:57:31.461Z,31.52
2022-09-03T17:00:14.900Z,31.41
2022-09-03T17:03:26.463Z,31.34
2022-09-03T17:06:14.105Z,31.28
2022-09-03T17:09:01.977Z,31.20
2022-09-03T17:11:49.668Z,31.13
2022-09-03T17:14:47.555Z,31.08
2022-09-03T17:17:33.558Z,31.03
2022-09-03T17:20:27.230Z,30.98
2022-09-03T17:23:38.082Z,30.92
2022-09-03T17:26:15.243Z,30.87
2022-09-03T17:29:14.206Z,30.80
2022-09-03T17:31:51.418Z,30.77
2022-09-03T17:34:57.034Z,30.69
2022-09-03T17:37:36.287Z,30.65
2022-09-03T17:40:32.593Z,30.57
2022-09-03T17:43:25.482Z,30.50
2022-09-03T17:46:27.660Z,30.42
2022-09-03T17:48:58.802Z,30.32
2022-09-03T17:51:47.428Z,30.25
2022-09-03T17:54:39.083Z,30.17
2022-09-03T17:57:10.441Z,30.10
2022-09-03T17:59:46.169Z,30.00
2022-09-03T18:02:27.441Z,29.89
2022-09-03T18:05:16.617Z,29.83
2022-09-03T18:07:54.349Z,29.73
2022-09-03T18:10:52.965Z,29.64
2022-09-03T18:14:00.610Z,29.52
2022-09-03T18:16:33.613Z,29.43
2022-09-03T18:19:08.414Z,29.33
2022-09-03T18:21:57.311Z,29.24
2022-09-03T18:24:51.386Z,29.15
2022-09-03T18:28:20.077Z,29.04
2022-09-03T18:31:08.124Z,28.96
2022-09-03T18:33:57.377Z,28.82
2022-09-03T18:36:42.410Z,28.71
2022-09-03T18:39:34.792Z,28.63
2022-09-03T18:43:02.494Z,28.49
2022-09-03T18:46:38.498Z,28.38
2022-09-03T18:49:27.851Z,28.23
2022-09-03T18:52:29.790Z,28.02
2022-09-03T18:55:40.940Z,27.76
2022-09-03T18:58:37.781Z,27.59
2022-09-03T19:01:52.156Z,27.48
2022-09-03T19:05:22.546Z,27.44
2022-09-03T19:08:24.541Z,27.42
2022-09-03T19:11:24.861Z,27.36
2022-09-03T19:14:11.802Z,27.30
2022-09-03T19:16:56.691Z,27.18
2022-09-03T19:20:14.214Z,27.03
2022-09-03T19:23:00.378Z,26.87
2022-09-03T19:25:48.475Z,26.80
2022-09-03T19:28:48.170Z,26.75
2022-09-03T19:31:54.330Z,26.69
2022-09-03T19:35:09.941Z,26.62
2022-09-03T19:38:10.289Z,26.54
2022-09-03T19:41:26.791Z,26.47
2022-09-03T19:44:22.439Z,26.41
2022-09-03T19:47:15.386Z,26.32
2022-09-03T19:50:22.569Z,26.19
2022-09-03T19:53:37.240Z,26.08
2022-09-03T19:56:29.260Z,26.02
2022-09-03T19:59:18.809Z,25.99
2022-09-03T20:02:05.345Z,25.95
2022-09-03T20:05:06.372Z,25.88
2022-09-03T20:07:53.914Z,25.82
2022-09-03T20:10:23.709Z,25.78
2022-09-03T20:13:04.144Z,25.78
2022-09-03T20:16:06.623Z,25.78
2022-09-03T20:18:57.642Z,25.79
2022-09-03T20:21:49.754Z,25.77
2022-09-03T20:24:29.468Z,25.74
2022-09-03T20:27:15.163Z,25.69
2022-09-03T20:30:09.653Z,25.52
2022-09-03T20:32:59.407Z,25.29
2022-09-03T20:35:49.557Z,25.08
2022-09-03T20:38:43.511Z,24.97
2022-09-03T20:41:23.237Z,24.91
2022-09-03T20:44:20.301Z,24.75
2022-09-03T20:47:21.324Z,24.65
2022-09-03T20:50:21.457Z,24.56
2022-09-03T20:53:33.170Z,24.46
2022-09-03T20:56:47.974Z,24.33
2022-09-03T20:59:49.894Z,24.31
2022-09-03T21:02:41.321Z,24.33
2022-09-03T21:05:22.002Z,24.38
2022-09-03T21:07:54.399Z,24.42
2022-09-03T21:10:26.598Z,24.42
2022-09-03T21:12:59.631Z,24.37
2022-09-03T21:15:52.117Z,24.32
2022-09-03T21:18:38.788Z,24.33
2022-09-03T21:21:45.617Z,24.35
2022-09-03T21:24:31.357Z,24.40
2022-09-03T21:27:13.986Z,24.45
2022-09-03T21:29:45.254Z,24.49
2022-09-03T21:32:18.738Z,24.52
2022-09-03T21:35:03.938Z,24.54
2022-09-03T21:37:35.211Z,24.57
2022-09-03T21:40:04.570Z,24.59
2022-09-03T21:42:52.261Z,24.60
2022-09-03T21:45:33.969Z,24.61
2022-09-03T21:48:07.640Z,24.60
2022-09-03T21:50:46.373Z,24.58
2022-09-03T21:53:31.697Z,24.56
2022-09-03T21:56:27.160Z,24.56
2022-09-03T21:59:08.937Z,24.54
2022-09-03T22:02:00.912Z,24.53
2022-09-03T22:04:54.667Z,24.50
2022-09-03T22:07:39.231Z,24.48
2022-09-03T22:10:28.527Z,24.45
2022-09-03T22:13:09.347Z,24.45
2022-09-03T22:15:38.188Z,24.43
2022-09-03T22:18:28.692Z,24.42
2022-09-03T22:21:35.881Z,24.40
2022-09-03T22:24:23.209Z,24.40
2022-09-03T22:27:01.593Z,24.35
2022-09-03T22:29:42.009Z,24.31
2022-09-03T22:32:34.576Z,24.28
2022-09-03T22:35:16.973Z,24.22
2022-09-03T22:38:01.001Z,24.19
2022-09-03T22:40:52.359Z,24.16
2022-09-03T22:43:41.666Z,24.13
2022-09-03T22:46:19.626Z,24.09
2022-09-03T22:49:18.114Z,24.02
2022-09-03T22:52:02.932Z,24.01
2022-09-03T22:54:55.035Z,23.97
2022-09-03T22:57:26.211Z,23.94
2022-09-03T23:00:01.906Z,23.88
2022-09-03T23:02:31.290Z,23.83
2022-09-03T23:05:07.689Z,23.79
2022-09-03T23:07:41.885Z,23.76
2022-09-03T23:10:23.082Z,23.73
2022-09-03T23:13:08.027Z,23.69
2022-09-03T23:15:39.384Z,23.67
2022-09-03T23:18:22.289Z,23.65
2022-09-03T23:21:15.946Z,23.62
2022-09-03T23:23:55.670Z,23.60
2022-09-03T23:26:34.224Z,23.57
2022-09-03T23:29:12.424Z,23.56
2022-09-03T23:31:39.376Z,23.56
2022-09-03T23:34:11.810Z,23.52
2022-09-03T23:37:01.326Z,23.52
2022-09-03T23:39:49.392Z,23.48
2022-09-03T23:42:39.047Z,23.38
2022-09-03T23:45:24.105Z,23.31
2022-09-03T23:48:13.655Z,23.27
2022-09-03T23:51:05.881Z,23.23
2022-09-03T23:53:40.542Z,23.20
2022-09-03T23:56:28.419Z,23.20
2022-09-03T23:59:13.968Z,23.16
